DW5222 Weather Reports


Display with metric or nautical units.
time (UTC)temp
F
wind
direction
speed
MPH
gust
MPH
rain 1hr
in
rain 24hr
in
rain mn
in
humidity
%
barometer
mb
20190820011205 63 174 0.0 3.0 0.01 0.32 0.01 95 1020.4
20190820010706 63 174 0.0 3.0 0.01 0.33 0.01 95 1020.3
20190820010205 63 326 0.0 1.0 0.01 0.34 0.01 95 1020.6
20190820005704 63 326 0.0 1.0 0.01 0.35 0.01 95 1020.5
20190820005205 63 326 0.0 1.0 0.01 0.36 0.01 95 1020.6
20190820004705 63 326 0.0 1.0 0.01 0.38 0.01 95 1020.8
20190820004205 63 326 0.0 3.0 0.01 0.42 0.01 95 1020.7
20190820003705 63 326 0.0 3.0 0.01 0.49 0.01 95 1020.8
20190820003205 63 326 1.0 3.0 0.00 0.50 0.00 95 1020.8
20190820002705 63 318 1.0 3.0 0.00 0.50 0.00 95 1020.8
20190820002205 63 327 0.0 3.0 0.00 0.50 0.00 95 1020.8
20190820001705 63 349 0.0 3.0 0.00 0.50 0.00 95 1020.7
20190820001205 63 349 1.0 4.0 0.00 0.50 0.00 95 1020.7
20190820000705 63 306 1.0 5.0 0.00 0.50 0.00 95 1020.8
20190820000205 63 17 1.0 5.0 0.00 0.50 0.00 95 1020.7
20190819235704 63 13 1.0 5.0 0.00 0.50 0.00 95 1020.7
20190819235205 64 333 1.0 3.0 0.00 0.50 0.00 95 1020.7
20190819234705 63 258 0.0 3.0 0.00 0.52 0.00 95 1020.6
20190819234204 63 323 0.0 3.0 0.00 0.52 0.00 95 1020.6
20190819233705 63 261 0.0 3.0 0.00 0.52 0.00 95 1020.6
20190819233205 63 261 0.0 2.0 0.00 0.52 0.00 95 1020.7
20190819232705 63 109 0.0 2.0 0.00 0.52 0.00 95 1020.7
20190819232205 63 109 0.0 1.0 0.00 0.52 0.00 95 1020.5
20190819231705 63 109 0.0 2.0 0.00 0.52 0.00 95 1020.5
20190819231205 63 109 0.0 2.0 0.00 0.52 0.00 95 1020.6
20190819230705 63 109 0.0 2.0 0.00 0.52 0.00 95 1020.5
20190819230205 63 109 0.0 2.0 0.00 0.52 0.00 95 1020.3
20190819225705 63 109 0.0 2.0 0.00 0.52 0.00 94 1020.2
20190819225205 63 109 0.0 1.0 0.01 0.52 0.00 94 1020.0
20190819224705 63 109 0.0 1.0 0.01 0.52 0.00 94 1020.1
20190819224205 63 109 0.0 1.0 0.01 0.52 0.00 94 1020.1
20190819223705 63 109 0.0 0.0 0.01 0.52 0.00 94 1020.1
20190819223205 63 109 0.0 1.0 0.01 0.52 0.00 94 1020.3
20190819222706 63 109 0.0 2.0 0.01 0.52 0.00 94 1020.3
20190819222205 63 109 0.0 2.0 0.01 0.52 0.00 94 1020.2
20190819221705 63 109 0.0 2.0 0.01 0.52 0.00 94 1020.2
20190819221204 63 109 0.0 2.0 0.01 0.52 0.00 94 1020.2
20190819220705 63 109 0.0 2.0 0.01 0.52 0.00 94 1020.1
20190819220205 63 109 0.0 2.0 0.01 0.52 0.52 94 1020.1
20190819215704 63 109 0.0 2.0 0.01 0.52 0.52 93 1020.1
20190819215205 64 109 0.0 2.0 0.00 0.51 0.51 93 1020.3
20190819214704 64 109 0.0 1.0 0.00 0.51 0.51 94 1020.3
20190819214205 64 109 0.0 1.0 0.00 0.51 0.51 94 1020.3
20190819213705 64 109 0.0 1.0 0.02 0.51 0.51 93 1020.3
20190819213205 64 109 0.0 1.0 0.02 0.51 0.51 93 1020.3
20190819212704 64 109 0.0 1.0 0.04 0.51 0.51 93 1020.3
20190819212205 64 109 0.0 1.0 0.06 0.51 0.51 93 1020.2
20190819211705 64 109 0.0 2.0 0.09 0.51 0.51 93 1020.1
20190819211205 64 109 0.0 2.0 0.16 0.51 0.51 93 1020.1
20190819210705 64 109 0.0 3.0 0.19 0.51 0.51 93 1020.1
20190819210205 64 109 0.0 3.0 0.20 0.51 0.51 92 1020.1
20190819205704 64 109 1.0 8.0 0.20 0.51 0.51 92 1020.1
20190819205205 65 109 2.0 8.0 0.20 0.51 0.51 92 1020.0
20190819204705 65 107 2.0 8.0 0.20 0.51 0.51 92 1020.1
20190819204205 65 90 2.0 6.0 0.19 0.50 0.50 92 1020.1
20190819203704 65 185 2.0 6.0 0.17 0.49 0.49 92 1020.1
20190819203205 65 110 1.0 3.0 0.17 0.48 0.48 91 1019.7
20190819202705 66 114 1.0 3.0 0.16 0.47 0.47 90 1019.9
20190819202205 66 111 1.0 3.0 0.13 0.44 0.44 90 1019.7
20190819201705 66 148 1.0 3.0 0.10 0.42 0.42 89 1019.7
20190819201206 67 78 1.0 3.0 0.02 0.34 0.34 88 1019.8
20190819200705 67 347 1.0 3.0 0.00 0.31 0.31 87 1020.0
20190819200205 67 329 1.0 3.0 0.00 0.31 0.31 86 1020.0
20190819195705 67 331 0.0 3.0 0.00 0.31 0.31 85 1019.9
20190819195205 67 32 0.0 3.0 0.00 0.31 0.31 85 1019.7
20190819194705 67 32 1.0 4.0 0.00 0.31 0.31 84 1019.7
20190819194205 67 31 1.0 4.0 0.00 0.31 0.31 84 1019.6
20190819193705 67 21 1.0 3.0 0.00 0.31 0.31 84 1019.6
20190819193205 67 28 0.0 4.0 0.00 0.31 0.31 84 1019.5
20190819192705 67 50 1.0 4.0 0.00 0.31 0.31 83 1019.6
20190819192206 67 37 1.0 4.0 0.00 0.31 0.31 83 1019.5
20190819191704 68 49 1.0 3.0 0.00 0.31 0.31 83 1019.6
20190819191205 68 49 1.0 3.0 0.00 0.31 0.31 83 1019.6
20190819190705 68 26 1.0 3.0 0.00 0.31 0.31 83 1019.5
20190819190205 68 31 1.0 3.0 0.00 0.31 0.31 83 1019.5
20190819185705 68 59 1.0 4.0 0.00 0.31 0.31 83 1019.3
20190819185204 68 59 1.0 4.0 0.00 0.31 0.31 83 1019.2
20190819184705 68 19 1.0 4.0 0.00 0.31 0.31 83 1019.1
20190819184205 68 34 1.0 4.0 0.00 0.31 0.31 83 1018.8
20190819183704 68 19 1.0 3.0 0.00 0.31 0.31 83 1018.9
20190819183206 69 38 0.0 3.0 0.00 0.31 0.31 82 1018.9
20190819182705 69 38 0.0 4.0 0.00 0.31 0.31 82 1018.9
20190819182205 69 38 1.0 4.0 0.00 0.31 0.31 82 1018.8
20190819181705 69 38 1.0 7.0 0.00 0.31 0.31 82 1018.8
20190819181205 69 28 2.0 7.0 0.00 0.31 0.31 82 1018.7
20190819180705 69 11 2.0 4.0 0.00 0.31 0.31 81 1018.7
20190819180205 69 355 1.0 6.0 0.00 0.31 0.31 81 1018.6
20190819175704 69 355 1.0 6.0 0.00 0.31 0.31 81 1018.7
20190819175204 70 44 2.0 7.0 0.00 0.31 0.31 81 1018.6
20190819174705 70 49 2.0 7.0 0.00 0.31 0.31 80 1018.6
20190819174205 70 58 2.0 7.0 0.00 0.31 0.31 80 1018.6
20190819173705 70 26 1.0 8.0 0.00 0.31 0.31 81 1018.7
20190819173205 70 9 2.0 8.0 0.00 0.31 0.31 81 1018.7
20190819172705 70 14 2.0 8.0 0.00 0.31 0.31 80 1018.7
20190819172204 71 13 2.0 7.0 0.00 0.31 0.31 80 1018.6
20190819171705 71 55 2.0 8.0 0.00 0.31 0.31 80 1018.6
20190819171205 71 355 2.0 8.0 0.00 0.31 0.31 79 1018.5
20190819170705 71 343 2.0 7.0 0.00 0.31 0.31 79 1018.5
20190819170205 71 35 2.0 5.0 0.00 0.31 0.31 79 1018.5
20190819165705 72 42 2.0 5.0 0.00 0.31 0.31 78 1018.4
20190819165205 72 335 2.0 5.0 0.00 0.31 0.31 77 1018.4
20190819164705 72 5 2.0 5.0 0.00 0.31 0.31 75 1018.4
20190819164205 73 44 1.0 3.0 0.00 0.31 0.31 74 1018.4
20190819163704 73 50 1.0 6.0 0.00 0.31 0.31 73 1018.3
20190819163205 73 39 1.0 6.0 0.00 0.31 0.31 73 1018.2
20190819162705 73 41 1.0 6.0 0.00 0.31 0.31 72 1018.1
20190819162205 73 16 1.0 4.0 0.00 0.31 0.31 71 1018.1
20190819161705 74 34 1.0 4.0 0.00 0.31 0.31 70 1018.1
20190819161205 74 5 1.0 4.0 0.00 0.31 0.31 70 1018.2
20190819160705 74 340 1.0 4.0 0.00 0.31 0.31 70 1018.2
20190819160205 74 321 0.0 4.0 0.00 0.31 0.31 71 1018.2
20190819155704 74 321 1.0 4.0 0.00 0.31 0.31 70 1018.1
20190819155204 74 326 1.0 6.0 0.00 0.31 0.31 69 1018.0
20190819154705 74 296 2.0 6.0 0.00 0.31 0.31 68 1018.1
20190819154205 75 0 2.0 6.0 0.00 0.31 0.31 67 1018.2
20190819153705 74 0 2.0 6.0 0.00 0.31 0.31 69 1018.1
20190819153204 74 344 2.0 4.0 0.00 0.31 0.31 69 1018.1
20190819152705 74 329 1.0 4.0 0.00 0.31 0.31 70 1018.1
20190819152205 74 24 1.0 4.0 0.00 0.31 0.31 70 1018.0
20190819151705 74 350 1.0 4.0 0.00 0.31 0.31 69 1018.1
20190819151205 74 346 1.0 4.0 0.00 0.31 0.31 70 1018.1
20190819150705 74 329 1.0 4.0 0.00 0.31 0.31 69 1018.1
20190819150204 74 327 1.0 4.0 0.00 0.31 0.31 67 1018.1
20190819145705 74 355 1.0 5.0 0.00 0.31 0.31 68 1018.1
20190819145204 74 9 2.0 5.0 0.00 0.31 0.31 69 1018.1
20190819144705 74 355 1.0 5.0 0.00 0.31 0.31 67 1018.1
20190819144204 75 40 1.0 5.0 0.00 0.31 0.31 66 1017.9
20190819143705 75 13 2.0 5.0 0.00 0.31 0.31 65 1017.9
20190819143205 76 11 1.0 5.0 0.00 0.31 0.31 63 1017.9
20190819142706 76 235 1.0 6.0 0.00 0.31 0.31 63 1018.0
20190819142205 75 291 2.0 6.0 0.00 0.31 0.31 63 1018.0
20190819141705 76 244 2.0 5.0 0.00 0.31 0.31 63 1018.0
20190819141205 76 0 1.0 7.0 0.00 0.31 0.31 64 1018.0
20190819140705 76 261 2.0 7.0 0.00 0.31 0.31 62 1018.1
20190819140205 75 269 2.0 7.0 0.00 0.31 0.31 63 1018.2
20190819135705 75 313 2.0 7.0 0.00 0.31 0.31 65 1018.3
20190819135205 74 316 2.0 7.0 0.00 0.31 0.31 64 1018.3
20190819134705 75 258 2.0 6.0 0.00 0.31 0.31 64 1018.3
20190819134204 75 0 3.0 9.0 0.00 0.31 0.31 65 1018.4
20190819133705 75 234 3.0 9.0 0.00 0.31 0.31 66 1018.2
20190819133205 75 246 3.0 7.0 0.00 0.31 0.31 66 1018.3
20190819132705 74 233 3.0 6.0 0.00 0.31 0.31 65 1018.2
20190819132205 75 0 2.0 8.0 0.00 0.31 0.31 64 1018.2
20190819131205 74 0 2.0 8.0 0.00 0.31 0.31 66 1018.4
20190819130705 74 0 2.0 9.0 0.00 0.31 0.31 67 1018.4
20190819125705 74 0 2.0 9.0 0.00 0.31 0.31 64 1018.5
20190819125205 74 0 1.0 5.0 0.00 0.31 0.31 66 1018.5
20190819124205 73 225 2.0 6.0 0.00 0.31 0.31 67 1018.5
20190819123706 72 0 3.0 6.0 0.00 0.31 0.31 68 1018.4
20190819122704 72 0 2.0 6.0 0.00 0.31 0.31 70 1018.4
20190819122205 71 0 2.0 6.0 0.00 0.31 0.31 70 1018.5
20190819121205 71 0 2.0 5.0 0.00 0.31 0.31 71 1018.5
20190819120705 71 0 1.0 5.0 0.00 0.31 0.31 71 1018.4
20190819115705 71 0 2.0 6.0 0.00 0.31 0.31 71 1018.3
20190819115205 71 0 2.0 6.0 0.00 0.31 0.31 70 1018.4
20190819114205 71 0 2.0 5.0 0.00 0.31 0.31 71 1018.3
20190819113705 71 0 2.0 5.0 0.00 0.31 0.31 69 1018.3
20190819112704 71 0 2.0 5.0 0.00 0.31 0.31 71 1018.2
20190819112205 71 0 1.0 5.0 0.00 0.31 0.31 71 1018.1
20190819111705 72 0 1.0 5.0 0.00 0.31 0.31 73 1018.1
20190819111205 71 0 1.0 5.0 0.00 0.31 0.31 75 1018.1
20190819110705 71 0 1.0 6.0 0.00 0.31 0.31 74 1018.0
20190819110205 71 0 1.0 6.0 0.00 0.31 0.31 75 1018.0
20190819105706 70 0 2.0 8.0 0.00 0.31 0.31 75 1018.0
20190819105205 70 0 2.0 8.0 0.00 0.31 0.31 76 1018.0
20190819104704 70 0 3.0 9.0 0.00 0.31 0.31 77 1018.0
20190819104205 70 0 3.0 9.0 0.00 0.31 0.31 75 1018.0
20190819103705 70 0 3.0 9.0 0.00 0.31 0.31 76 1018.1
20190819103205 70 0 3.0 8.0 0.00 0.31 0.31 75 1018.2
20190819102705 70 0 2.0 6.0 0.00 0.31 0.31 76 1018.2
20190819102205 70 0 2.0 8.0 0.00 0.31 0.31 75 1018.1
20190819101705 71 0 2.0 8.0 0.00 0.31 0.31 79 1017.9
20190819101205 70 0 2.0 8.0 0.00 0.31 0.31 78 1018.0
20190819100705 70 0 2.0 5.0 0.00 0.31 0.31 79 1018.0
20190819100205 70 247 2.0 5.0 0.00 0.31 0.31 80 1018.1
20190819095705 69 0 2.0 7.0 0.00 0.31 0.31 82 1018.1
20190819095205 69 0 2.0 7.0 0.00 0.31 0.31 81 1018.2
20190819094705 68 219 2.0 8.0 0.00 0.31 0.31 81 1018.0
20190819094205 68 240 2.0 9.0 0.00 0.31 0.31 83 1018.1
20190819093705 68 214 3.0 9.0 0.00 0.31 0.31 84 1018.1
20190819093205 68 254 2.0 9.0 0.00 0.31 0.31 85 1018.1
20190819092705 68 225 1.0 4.0 0.00 0.31 0.31 89 1018.2
20190819092205 67 249 1.0 4.0 0.01 0.31 0.31 88 1018.1
20190819091205 66 279 1.0 4.0 0.01 0.31 0.31 91 1018.4
20190819090705 66 279 2.0 4.0 0.01 0.31 0.31 91 1018.2
20190819090205 66 252 1.0 4.0 0.01 0.31 0.31 92 1018.4
20190819085704 65 205 1.0 4.0 0.01 0.31 0.31 93 1018.4
20190819085204 65 220 1.0 4.0 0.01 0.31 0.31 93 1018.3
20190819084705 65 263 1.0 4.0 0.01 0.31 0.31 93 1018.2
20190819084205 65 232 0.0 3.0 0.01 0.31 0.31 94 1018.2
20190819083705 65 232 0.0 3.0 0.01 0.31 0.31 94 1018.1
20190819083205 64 232 0.0 3.0 0.01 0.31 0.31 94 1018.1
20190819082705 64 219 0.0 3.0 0.00 0.31 0.31 94 1018.0
20190819082205 64 222 0.0 4.0 0.00 0.31 0.31 94 1018.0
20190819081705 64 222 0.0 4.0 0.00 0.31 0.31 94 1017.9
20190819081205 64 170 1.0 4.0 0.00 0.31 0.31 94 1017.7
20190819080705 64 170 1.0 7.0 0.00 0.31 0.31 94 1017.7
20190819080205 64 227 0.0 7.0 0.00 0.31 0.31 95 1017.6
20190819075704 64 164 1.0 7.0 0.00 0.31 0.31 94 1017.5
20190819075205 64 164 1.0 5.0 0.00 0.31 0.31 95 1017.3
20190819074705 64 155 1.0 5.0 0.00 0.31 0.31 95 1017.3
20190819074205 64 157 1.0 5.0 0.00 0.31 0.31 95 1017.3
20190819073705 64 169 1.0 5.0 0.00 0.31 0.31 95 1017.3
20190819073204 64 162 1.0 5.0 0.00 0.31 0.31 95 1017.3
20190819072704 64 157 0.0 2.0 0.00 0.31 0.31 95 1017.5
20190819072205 63 194 0.0 2.0 0.00 0.31 0.31 95 1017.7
20190819071705 63 199 0.0 2.0 0.00 0.31 0.31 95 1017.7
20190819071205 63 227 0.0 2.0 0.00 0.31 0.31 95 1017.9
20190819070705 63 227 0.0 2.0 0.00 0.31 0.31 95 1017.9
20190819065705 63 221 1.0 3.0 0.00 0.31 0.31 95 1018.1
20190819065205 63 263 1.0 3.0 0.00 0.31 0.31 95 1018.1
20190819064705 62 246 0.0 3.0 0.00 0.31 0.31 95 1018.0
20190819064206 62 246 0.0 3.0 0.00 0.31 0.31 95 1017.9
20190819063705 62 246 0.0 3.0 0.00 0.31 0.31 95 1017.9
20190819063205 62 150 1.0 3.0 0.00 0.31 0.31 95 1017.8
20190819062704 62 198 0.0 5.0 0.00 0.31 0.31 95 1017.8
20190819062205 62 234 1.0 5.0 0.00 0.31 0.31 95 1017.8
20190819061705 62 182 1.0 5.0 0.00 0.31 0.31 95 1017.8
20190819061205 62 165 0.0 5.0 0.01 0.31 0.31 95 1017.6
20190819060705 62 163 0.0 5.0 0.01 0.31 0.31 95 1017.5
20190819060205 62 162 1.0 5.0 0.02 0.31 0.31 95 1017.3
20190819055705 62 160 1.0 5.0 0.02 0.31 0.31 95 1017.1
20190819055205 62 161 0.0 5.0 0.02 0.31 0.31 95 1017.1
20190819054705 62 169 1.0 5.0 0.02 0.31 0.31 95 1017.1
20190819054206 62 174 2.0 5.0 0.02 0.31 0.31 95 1017.0
20190819053705 62 166 1.0 5.0 0.02 0.31 0.31 95 1016.8
20190819053206 62 252 0.0 3.0 0.02 0.31 0.31 95 1016.8
20190819052704 62 252 0.0 3.0 0.02 0.31 0.31 95 1017.1
20190819052205 62 225 0.0 3.0 0.02 0.31 0.31 95 1017.5
20190819051705 62 207 0.0 3.0 0.02 0.31 0.31 95 1017.2
20190819051205 62 242 0.0 3.0 0.02 0.30 0.30 95 1017.2
20190819050705 62 242 1.0 3.0 0.01 0.29 0.29 95 1017.1
20190819050205 62 243 0.0 2.0 0.00 0.28 0.28 95 1017.3
20190819045705 62 216 0.0 1.0 0.00 0.28 0.28 95 1017.2
20190819045205 62 216 0.0 2.0 0.01 0.28 0.28 95 1017.2
20190819044705 62 216 0.0 6.0 0.01 0.28 0.28 95 1017.3
20190819044205 62 216 0.0 6.0 0.02 0.28 0.28 95 1017.1
20190819043705 62 216 0.0 6.0 0.02 0.28 0.28 95 1017.1
20190819043205 62 228 0.0 4.0 0.02 0.28 0.28 95 1017.1
20190819042705 62 236 0.0 2.0 0.02 0.28 0.28 95 1017.0
20190819042205 62 236 0.0 3.0 0.02 0.28 0.28 95 1017.0
20190819041705 62 236 0.0 3.0 0.02 0.28 0.28 95 1017.0
20190819041205 62 236 0.0 3.0 0.02 0.28 0.28 95 1017.0
20190819040706 62 216 0.0 3.0 0.02 0.28 0.28 95 1016.9
20190819040205 62 194 0.0 3.0 0.02 0.28 0.28 95 1016.8
20190819035705 62 150 0.0 3.0 0.01 0.28 0.28 95 1017.0
20190819035205 62 150 0.0 4.0 0.01 0.28 0.28 95 1017.0
20190819034705 62 150 0.0 7.0 0.00 0.27 0.27 95 1017.0
20190819034205 62 238 1.0 7.0 0.00 0.27 0.27 95 1017.0
20190819033705 62 216 1.0 7.0 0.00 0.27 0.27 95 1017.0
20190819033205 62 244 1.0 6.0 0.00 0.27 0.27 94 1017.0
20190819032705 62 225 1.0 4.0 0.01 0.27 0.27 95 1017.1
20190819032205 62 246 0.0 4.0 0.01 0.27 0.27 94 1017.1
20190819031705 62 242 1.0 4.0 0.02 0.27 0.27 94 1017.1
20190819031205 62 191 1.0 4.0 0.03 0.27 0.27 94 1017.1
20190819030705 62 165 1.0 5.0 0.03 0.27 0.27 94 1017.1
20190819030205 62 191 1.0 5.0 0.05 0.27 0.27 94 1017.1
20190819025705 62 186 1.0 5.0 0.05 0.27 0.27 94 1017.1
20190819025206 62 179 0.0 2.0 0.06 0.27 0.27 94 1017.1
20190819024705 62 157 0.0 2.0 0.06 0.27 0.27 94 1017.0
20190819024205 62 157 0.0 4.0 0.06 0.27 0.27 94 1016.9
20190819023705 62 157 0.0 4.0 0.06 0.27 0.27 94 1017.1
20190819023205 62 157 0.0 4.0 0.06 0.26 0.26 94 1017.2
20190819022704 62 159 0.0 5.0 0.06 0.26 0.26 94 1017.3
20190819022205 62 159 0.0 5.0 0.05 0.25 0.25 94 1017.3
20190819021705 62 159 1.0 5.0 0.04 0.24 0.24 94 1017.3
20190819021205 62 163 1.0 5.0 0.03 0.24 0.24 93 1017.3
20190819020705 62 231 1.0 5.0 0.03 0.23 0.23 93 1017.5
20190819020205 62 211 1.0 3.0 0.03 0.22 0.22 93 1017.3
20190819015705 62 187 1.0 3.0 0.04 0.21 0.21 93 1017.7
20190819015205 62 148 0.0 3.0 0.05 0.21 0.21 93 1018.0
20190819014706 62 249 0.0 4.0 0.06 0.20 0.20 93 1018.0
20190819014205 62 249 1.0 4.0 0.09 0.20 0.20 93 1018.0
20190819013705 62 252 1.0 4.0 0.17 0.20 0.20 93 1017.9
20190819013205 62 257 2.0 4.0 0.18 0.20 0.20 92 1017.8
20190819012705 62 286 1.0 4.0 0.19 0.20 0.20 92 1017.8
20190819012205 62 272 1.0 4.0 0.19 0.20 0.20 92 1018.0
20190819011705 62 240 1.0 4.0 0.19 0.20 0.20 92 1017.9